Stations météo

réclame
Mon MeteoGroup
Beitem, Belgique (6414): Température de l'air & dewpoint: 15.09.2018 10:00:00 - 21.09.2018 10:00:00 (CEST)Beitem, Belgique (6414): Vitesse du vent & gusts: 15.09.2018 10:00:00 - 21.09.2018 10:00:00 (CEST)Beitem, Belgique (6414): Direction du vent: 15.09.2018 10:00:00 - 21.09.2018 10:00:00 (CEST)Beitem, Belgique (6414): reduced air pressure: 15.09.2018 10:00:00 - 21.09.2018 10:00:00 (CEST)Beitem, Belgique (6414): Ensoleillement: 15.09.2018 10:00:00 - 21.09.2018 10:00:00 (CEST)Beitem, Belgique (6414): Quantités de précipitations: 15.09.2018 10:00:00 - 21.09.2018 10:00:00 (CEST)
Date & Time tt [°C] td [°C] ff [km/h] ff [knt] fx [km/h] fx [knt] dd ppp [hPa] sd [min] rr [mm]
21.09.2018 10:00:00 13,6 11,6 20 11 46 25 W 1007,0 13 0,3
21.09.2018 09:00:00 14,6 11,9 17 9 30 16 WSW 1005,5 0 0,0
21.09.2018 08:00:00 14,4 13,3 18 10 65 35 WSW 1004,5 0 1,6
21.09.2018 07:00:00 17,7 15,3 34 19 59 32 SSW 1002,2 0 0,3
21.09.2018 06:00:00 18,2 14,5 28 15 51 28 SSW 1002,3 0 0,0
21.09.2018 05:00:00 19,1 13,7 29 16 49 27 S 1002,6 0 0,1
21.09.2018 04:00:00 19,2 13,6 26 14 39 21 S 1003,9 0 0,0
21.09.2018 03:00:00 19,3 13,8 24 13 43 23 SSW 1005,1 0 0,0
21.09.2018 02:00:00 19,9 13,9 25 14 45 24 SSW 1006,4 0 0,0
21.09.2018 01:00:00 19,7 13,8 18 10 34 18 SSW 1007,1 0 0,0
21.09.2018 00:00:00 20,4 13,7 20 11 31 17 S 1008,0 0 0,0
20.09.2018 23:00:00 20,2 13,9 14 8 25 13 S 1008,7 0 0,0
20.09.2018 22:00:00 20,7 14,0 16 8 26 14 S 1009,6 0 0,0
20.09.2018 21:00:00 21,2 13,8 13 7 25 13 S 1010,5 0 0,0
20.09.2018 20:00:00 22,2 13,6 18 10 30 16 S 1010,9 3 0,0
20.09.2018 19:00:00 23,1 13,5 17 9 39 21 SSW 1011,8 7 0,0
20.09.2018 18:00:00 24,0 13,9 26 14 43 23 SSW 1012,4 59 0,0
20.09.2018 17:00:00 23,4 14,0 21 11 38 21 SSW 1013,1 60 0,0
20.09.2018 16:00:00 22,7 14,1 23 13 36 20 SSW 1014,2 60 0,0
20.09.2018 15:00:00 22,2 14,5 22 12 37 20 SSW 1014,9 53 0,0
20.09.2018 14:00:00 21,2 14,2 25 14 38 20 SSW 1015,8 49 0,0
20.09.2018 13:00:00 20,9 14,9 24 13 35 19 SW 1016,3 49 0,0
20.09.2018 12:00:00 19,3 15,2 17 9 30 16 SW 1016,9 31 0,0
20.09.2018 11:00:00 18,3 15,1 19 10 33 18 SSW 1016,8 37 0,0
20.09.2018 10:00:00 17,3 14,7 20 11 31 17 SSW 1017,2 47 0,0
20.09.2018 09:00:00 15,9 14,3 13 7 18 10 S 1017,2 43 0,0
20.09.2018 08:00:00 14,9 13,7 11 6 18 10 S 1017,1 0 0,0
20.09.2018 07:00:00 14,9 13,5 10 5 16 9 S 1016,8 0 0,0
20.09.2018 06:00:00 15,3 13,5 10 5 16 8 S 1017,1 0 0,0
20.09.2018 05:00:00 16,1 13,7 13 7 18 10 S 1017,2 0 0,0
20.09.2018 04:00:00 15,9 13,8 8 4 16 8 SSW 1017,2 0 0,0
20.09.2018 03:00:00 16,2 14,2 8 4 12 7 S 1017,0 0 0,0
20.09.2018 02:00:00 16,6 14,0 11 6 16 8 S 1017,6 0 0,0
20.09.2018 01:00:00 16,6 14,3 9 5 13 7 SW 1018,0 0 0,0
20.09.2018 00:00:00 17,0 14,0 7 4 14 8 SW 1018,2 0 0,0
19.09.2018 23:00:00 17,9 14,1 8 5 13 7 W 1018,1 0 0,0
19.09.2018 22:00:00 18,4 13,9 7 4 13 7 S 1017,7 0 0,0
19.09.2018 21:00:00 20,0 14,0 8 5 29 16 SSW 1017,7 0 0,0
19.09.2018 20:00:00 21,4 13,8 11 6 23 12 SW 1017,5 18 0,0
19.09.2018 19:00:00 22,2 14,2 15 8 28 15 SW 1017,1 21 0,0
19.09.2018 18:00:00 22,4 14,2 18 10 35 19 WSW 1017,1 13 0,0
19.09.2018 17:00:00 22,5 13,9 23 13 41 22 SW 1017,1 32 0,0
19.09.2018 16:00:00 22,5 14,0 22 12 39 21 SW 1017,1 4 0,0
19.09.2018 15:00:00 22,4 13,5 22 12 42 23 SW 1016,9 22 0,0
19.09.2018 14:00:00 23,4 13,7 22 12 41 22 SW 1016,8 48 0,1
19.09.2018 13:00:00 22,2 13,1 29 16 41 22 SW 1017,1 58 0,0
19.09.2018 12:00:00 21,1 13,9 24 13 34 19 SW 1017,4 60 0,0
19.09.2018 11:00:00 19,8 14,5 18 10 34 18 SW 1017,2 60 0,0
19.09.2018 10:00:00 17,7 14,3 18 10 29 16 SSW 1016,8 60 0,0
19.09.2018 09:00:00 15,8 14,1 14 8 22 12 SSW 1016,3 39 0,0
19.09.2018 08:00:00 15,2 13,9 14 8 21 11 SSW 1016,0 0 0,0
19.09.2018 07:00:00 15,5 14,1 12 7 19 11 SSW 1015,5 0 0,0
19.09.2018 06:00:00 15,6 14,4 10 6 17 9 S 1015,7 0 0,0
19.09.2018 05:00:00 15,3 14,1 9 5 16 9 S 1015,7 0 0,0
19.09.2018 04:00:00 14,7 13,6 6 4 11 6 S 1015,9 0 0,0
19.09.2018 03:00:00 15,2 13,7 6 4 20 11 S 1015,9 0 0,0
19.09.2018 02:00:00 15,4 13,8 11 6 16 9 S 1015,9 0 0,0
19.09.2018 01:00:00 14,5 13,1 4 2 12 6 S 1016,1 0 0,0
19.09.2018 00:00:00 14,0 12,5 4 2 11 6 S 1016,0 0 0,0
18.09.2018 23:00:00 15,7 13,5 8 4 11 6 S 1016,2 0 0,0
18.09.2018 22:00:00 15,6 13,3 6 4 8 5 S 1016,0 0 0,0
18.09.2018 21:00:00 17,3 13,6 4 2 13 7 SW 1016,1 0 0,0
18.09.2018 20:00:00 19,0 14,1 11 6 27 15 W 1015,6 9 0,0
18.09.2018 19:00:00 20,2 14,3 16 8 37 20 WSW 1014,8 9 0,0
18.09.2018 18:00:00 21,1 13,8 15 8 42 23 WSW 1014,7 17 0,0
18.09.2018 17:00:00 22,9 13,7 21 12 50 27 WSW 1014,3 60 0,0
18.09.2018 16:00:00 23,2 12,5 29 16 49 27 W 1014,1 60 0,1
18.09.2018 15:00:00 23,6 13,3 30 16 53 29 SW 1013,7 48 0,0
18.09.2018 14:00:00 23,6 14,0 29 16 49 26 SW 1013,3 49 0,0
18.09.2018 13:00:00 22,5 14,5 29 15 48 26 SW 1013,0 51 0,1
18.09.2018 12:00:00 21,5 14,9 29 16 51 28 SW 1012,8 55 0,0
18.09.2018 11:00:00 20,3 15,3 27 15 44 24 SW 1012,1 60 0,0
18.09.2018 10:00:00 19,3 14,4 16 9 26 14 SSW 1011,4 60 0,0
18.09.2018 09:00:00 17,4 11,7 14 7 23 13 SSW 1011,3 60 0,0
18.09.2018 08:00:00 16,0 9,7 11 6 17 9 SSW 1010,8 7 0,0
18.09.2018 07:00:00 16,9 8,5 9 5 22 12 S 1010,2 0 0,0
18.09.2018 06:00:00 16,8 8,4 11 6 16 8 S 1009,9 0 0,0
18.09.2018 05:00:00 16,9 8,1 8 4 15 8 SSE 1009,9 0 0,0
18.09.2018 04:00:00 16,5 8,3 10 5 17 9 SSE 1010,4 0 0,0
18.09.2018 03:00:00 16,5 8,6 9 5 14 8 S 1010,9 0 0,0
18.09.2018 02:00:00 16,1 8,8 7 4 11 6 S 1011,4 0 0,0
18.09.2018 01:00:00 16,7 8,8 6 3 11 6 SSE 1011,9 0 0,0
18.09.2018 00:00:00 16,9 8,7 6 3 10 5 SE 1012,4 0 0,0
17.09.2018 23:00:00 16,1 9,4 5 3 8 5 ESE 1013,0 0 0,0
17.09.2018 22:00:00 16,9 9,9 6 3 8 5 ESE 1013,5 0 0,0
17.09.2018 21:00:00 18,9 9,7 5 3 6 4 ESE 1014,0 0 0,0
17.09.2018 20:00:00 22,3 8,6 4 2 16 8 SE 1014,1 52 0,0
17.09.2018 19:00:00 24,6 8,2 10 5 20 11 S 1014,5 60 0,0
17.09.2018 18:00:00 25,5 7,2 16 8 27 15 S 1014,9 60 0,0
17.09.2018 17:00:00 25,6 7,9 14 7 26 14 S 1015,6 60 0,0
17.09.2018 16:00:00 25,5 7,9 17 9 31 17 SSW 1016,5 60 0,0
17.09.2018 15:00:00 24,6 9,0 17 9 31 17 S 1017,4 60 0,0
17.09.2018 14:00:00 23,9 8,8 18 10 26 14 SSW 1018,0 60 0,0
17.09.2018 13:00:00 22,5 10,3 14 7 22 12 S 1018,7 60 0,0
17.09.2018 12:00:00 20,6 11,1 13 7 21 11 SSW 1019,4 60 0,0
17.09.2018 11:00:00 18,2 11,3 12 7 18 10 SSW 1019,7 60 0,0
17.09.2018 10:00:00 14,9 11,6 9 5 12 7 S 1019,7 60 0,0
17.09.2018 09:00:00 11,5 10,4 6 4 10 5 S 1019,9 52 0,0
17.09.2018 08:00:00 8,8 8,6 4 2 8 4 S 1019,9 2 0,0
17.09.2018 07:00:00 8,6 8,3 0 0 8 4 N 1019,7 0 0,0
17.09.2018 06:00:00 10,7 9,7 7 4 11 6 S 1019,1 0 0,0
17.09.2018 05:00:00 10,9 10,3 8 5 11 6 S 1019,8 0 0,0
17.09.2018 04:00:00 10,1 9,7 4 2 10 5 WSW 1020,4 0 0,0
17.09.2018 03:00:00 10,2 9,9 5 3 9 5 SSW 1020,1 0 0,0
17.09.2018 02:00:00 9,6 9,3 4 2 7 4 SSW 1020,5 0 0,0
17.09.2018 01:00:00 9,7 9,2 4 2 6 3 SSW 1020,4 0 0,0
17.09.2018 00:00:00 10,7 9,8 4 2 8 4 SSW 1020,4 0 0,0
16.09.2018 23:00:00 11,5 10,0 4 2 7 4 SW 1020,4 0 0,0
16.09.2018 22:00:00 14,0 10,8 6 3 9 5 SSW 1020,5 0 0,0
16.09.2018 21:00:00 14,8 10,5 5 3 9 5 SSW 1020,2 0 0,0
16.09.2018 20:00:00 18,7 10,4 7 4 18 10 WSW 1020,0 57 0,0
16.09.2018 19:00:00 21,3 10,3 13 7 23 12 SSW 1019,6 60 0,0
16.09.2018 18:00:00 22,3 10,5 14 8 24 13 SSW 1019,5 60 0,0
16.09.2018 17:00:00 21,9 10,3 12 6 23 12 SSW 1019,8 60 0,0
16.09.2018 16:00:00 22,0 10,4 16 8 24 13 SSW 1020,0 60 0,0
16.09.2018 15:00:00 21,6 10,5 13 7 26 14 SW 1020,8 46 0,0
16.09.2018 14:00:00 20,8 10,8 11 6 24 13 SSW 1021,3 10 0,0
16.09.2018 13:00:00 20,5 10,3 16 9 29 15 SSW 1022,1 51 0,0
16.09.2018 12:00:00 19,2 10,8 17 9 25 13 S 1022,3 60 0,0
16.09.2018 11:00:00 16,9 11,5 13 7 19 11 S 1022,6 60 0,0
16.09.2018 10:00:00 13,9 11,5 9 5 16 8 S 1022,7 57 0,0
16.09.2018 09:00:00 10,6 10,1 6 3 12 6 S 1022,6 38 0,0
16.09.2018 08:00:00 8,2 8,2 4 2 9 5 S 1023,0 7 0,0
16.09.2018 07:00:00 7,1 7,1 6 3 8 5 SSE 1022,8 0 0,0
16.09.2018 06:00:00 6,9 6,9 0 0 6 3 N 1023,0 0 0,0
16.09.2018 05:00:00 7,3 7,3 4 2 5 3 S 1023,2 0 0,0
16.09.2018 04:00:00 7,5 7,5 0 0 5 3 N 1023,5 0 0,0
16.09.2018 03:00:00 8,0 8,0 0 0 4 2 N 1024,1 0 0,0
16.09.2018 02:00:00 8,6 8,6 4 2 4 2 SSE 1024,8 0 0,0
16.09.2018 01:00:00 9,1 8,9 4 2 4 2 S 1025,4 0 0,0
16.09.2018 00:00:00 9,9 9,5 4 2 4 2 SW 1025,4 0 0,0
15.09.2018 23:00:00 10,7 10,1 4 2 5 3 WSW 1025,6 0 0,0
15.09.2018 22:00:00 12,2 10,8 4 2 5 3 SSW 1025,4 0 0,0
15.09.2018 21:00:00 13,6 11,0 0 0 5 3 N 1025,0 0 0,0
15.09.2018 20:00:00 16,7 11,5 4 2 11 6 NNW 1024,7 0 0,0
15.09.2018 19:00:00 18,1 11,3 8 5 14 8 NNW 1024,6 13 0,0
15.09.2018 18:00:00 19,0 11,1 8 5 18 10 NW 1024,5 13 0,0
15.09.2018 17:00:00 19,7 11,1 13 7 25 13 NW 1024,8 50 0,0
15.09.2018 16:00:00 20,9 10,0 12 6 28 15 WSW 1024,9 44 0,0
15.09.2018 15:00:00 20,5 10,5 16 8 26 14 WNW 1025,2 48 0,0
15.09.2018 14:00:00 18,4 11,5 11 6 24 13 W 1025,7 14 0,0
15.09.2018 13:00:00 19,2 11,8 16 8 25 14 W 1025,7 47 0,0
15.09.2018 12:00:00 18,0 12,3 11 6 19 10 SW 1025,7 60 0,0
15.09.2018 11:00:00 16,8 13,5 8 5 15 8 SW 1025,5 60 0,0
15.09.2018 10:00:00 14,2 13,0 9 5 20 11 SW 1025,1 60 0,0

tt = Température de l'air
td = dewpoint
ff = Vitesse du vent
fx = gusts
dd = Direction du vent
ppp = reduced air pressure
sd = Ensoleillement
rr = Quantités de précipitations

stations d'obs. à proximité